sensor_id;sensor_type;location;lat;lon;timestamp;pressure;altitude;pressure_sealevel;temperature;humidity
41140;BME280;26881;48.784;9.192;2022-08-30T00:04:50;98795.78;;;20.08;65.30
41140;BME280;26881;48.784;9.192;2022-08-30T00:10:12;98800.22;;;20.17;64.40
41140;BME280;26881;48.784;9.192;2022-08-30T00:15:34;98801.75;;;20.19;64.32
41140;BME280;26881;48.784;9.192;2022-08-30T00:20:55;98805.13;;;20.12;64.58
41140;BME280;26881;48.784;9.192;2022-08-30T00:26:17;98805.59;;;19.97;64.75
41140;BME280;26881;48.784;9.192;2022-08-30T00:31:39;98813.63;;;19.68;66.72
41140;BME280;26881;48.784;9.192;2022-08-30T00:37:01;98813.63;;;19.58;67.65
41140;BME280;26881;48.784;9.192;2022-08-30T00:42:23;98814.47;;;19.49;67.77
41140;BME280;26881;48.784;9.192;2022-08-30T00:47:45;98810.69;;;19.62;67.49
41140;BME280;26881;48.784;9.192;2022-08-30T00:53:14;98812.94;;;19.47;68.50
41140;BME280;26881;48.784;9.192;2022-08-30T00:58:40;98806.94;;;19.35;69.18
41140;BME280;26881;48.784;9.192;2022-08-30T01:04:04;98803.94;;;19.67;67.23
41140;BME280;26881;48.784;9.192;2022-08-30T01:09:27;98813.09;;;19.35;69.01
41140;BME280;26881;48.784;9.192;2022-08-30T01:14:48;98819.09;;;19.28;69.24
41140;BME280;26881;48.784;9.192;2022-08-30T01:20:17;98814.06;;;19.15;69.85
41140;BME280;26881;48.784;9.192;2022-08-30T01:25:43;98810.28;;;19.08;70.43
41140;BME280;26881;48.784;9.192;2022-08-30T01:31:05;98811.69;;;19.02;70.63
41140;BME280;26881;48.784;9.192;2022-08-30T01:36:28;98808.75;;;19.15;70.36
41140;BME280;26881;48.784;9.192;2022-08-30T01:41:50;98806.41;;;19.02;69.88
41140;BME280;26881;48.784;9.192;2022-08-30T01:47:12;98805.13;;;18.97;70.10
41140;BME280;26881;48.784;9.192;2022-08-30T01:52:34;98823.13;;;18.93;70.30
41140;BME280;26881;48.784;9.192;2022-08-30T01:57:56;98820.31;;;18.85;71.14
41140;BME280;26881;48.784;9.192;2022-08-30T02:03:17;98825.97;;;18.70;71.72
41140;BME280;26881;48.784;9.192;2022-08-30T02:08:41;98822.63;;;18.68;72.33
41140;BME280;26881;48.784;9.192;2022-08-30T02:14:04;98824.25;;;18.60;72.47
41140;BME280;26881;48.784;9.192;2022-08-30T02:19:26;98814.72;;;18.78;71.92
41140;BME280;26881;48.784;9.192;2022-08-30T02:24:48;98812.25;;;18.96;70.37
41140;BME280;26881;48.784;9.192;2022-08-30T02:30:10;98806.81;;;19.07;69.61
41140;BME280;26881;48.784;9.192;2022-08-30T02:35:32;98803.59;;;19.13;69.27
41140;BME280;26881;48.784;9.192;2022-08-30T02:40:54;98797.59;;;19.11;69.79
41140;BME280;26881;48.784;9.192;2022-08-30T02:46:16;98796.47;;;18.94;71.03
41140;BME280;26881;48.784;9.192;2022-08-30T02:51:39;98804.28;;;18.86;71.98
41140;BME280;26881;48.784;9.192;2022-08-30T02:57:01;98802.53;;;18.56;73.34
41140;BME280;26881;48.784;9.192;2022-08-30T03:02:27;98798.88;;;18.57;73.10
41140;BME280;26881;48.784;9.192;2022-08-30T03:07:50;98788.44;;;18.56;73.60
41140;BME280;26881;48.784;9.192;2022-08-30T03:13:13;98782.94;;;18.38;74.45
41140;BME280;26881;48.784;9.192;2022-08-30T03:18:36;98785.06;;;18.44;74.59
41140;BME280;26881;48.784;9.192;2022-08-30T03:23:57;98783.91;;;18.37;74.65
41140;BME280;26881;48.784;9.192;2022-08-30T03:29:19;98769.91;;;18.56;74.51
41140;BME280;26881;48.784;9.192;2022-08-30T03:34:41;98786.59;;;18.46;74.77
41140;BME280;26881;48.784;9.192;2022-08-30T03:40:05;98780.28;;;18.28;75.72
41140;BME280;26881;48.784;9.192;2022-08-30T03:45:28;98771.81;;;18.44;74.98
41140;BME280;26881;48.784;9.192;2022-08-30T03:50:50;98775.72;;;18.40;75.01
41140;BME280;26881;48.784;9.192;2022-08-30T03:56:12;98769.81;;;18.26;75.81
41140;BME280;26881;48.784;9.192;2022-08-30T04:01:34;98779.72;;;18.34;75.61
41140;BME280;26881;48.784;9.192;2022-08-30T04:06:56;98785.38;;;18.20;76.50
41140;BME280;26881;48.784;9.192;2022-08-30T04:12:17;98781.25;;;18.37;75.66
41140;BME280;26881;48.784;9.192;2022-08-30T04:17:43;98779.69;;;18.24;76.52
41140;BME280;26881;48.784;9.192;2022-08-30T04:23:05;98778.06;;;17.93;78.23
41140;BME280;26881;48.784;9.192;2022-08-30T04:28:30;98787.38;;;17.76;78.61
41140;BME280;26881;48.784;9.192;2022-08-30T04:33:51;98787.66;;;17.73;79.06
41140;BME280;26881;48.784;9.192;2022-08-30T04:39:14;98791.63;;;18.09;76.58
41140;BME280;26881;48.784;9.192;2022-08-30T04:44:36;98790.56;;;17.90;78.13
41140;BME280;26881;48.784;9.192;2022-08-30T04:49:57;98793.47;;;17.87;78.49
41140;BME280;26881;48.784;9.192;2022-08-30T04:55:19;98802.50;;;17.64;79.64
41140;BME280;26881;48.784;9.192;2022-08-30T05:00:43;98802.31;;;17.77;78.94
41140;BME280;26881;48.784;9.192;2022-08-30T05:06:05;98819.91;;;17.66;78.75
41140;BME280;26881;48.784;9.192;2022-08-30T05:11:27;98823.78;;;17.62;78.47
41140;BME280;26881;48.784;9.192;2022-08-30T05:16:48;98831.06;;;17.70;77.14
41140;BME280;26881;48.784;9.192;2022-08-30T05:22:10;98833.69;;;17.81;76.44
41140;BME280;26881;48.784;9.192;2022-08-30T05:27:33;98839.03;;;17.91;76.22
41140;BME280;26881;48.784;9.192;2022-08-30T05:32:58;98839.31;;;18.19;75.08
41140;BME280;26881;48.784;9.192;2022-08-30T05:38:20;98840.88;;;18.21;74.74
41140;BME280;26881;48.784;9.192;2022-08-30T05:43:42;98826.34;;;18.56;73.50
41140;BME280;26881;48.784;9.192;2022-08-30T05:49:06;98822.88;;;18.56;74.92
41140;BME280;26881;48.784;9.192;2022-08-30T05:54:28;98816.38;;;18.39;76.19
41140;BME280;26881;48.784;9.192;2022-08-30T05:59:49;98821.47;;;18.51;75.55
41140;BME280;26881;48.784;9.192;2022-08-30T06:05:11;98830.75;;;18.46;76.17
41140;BME280;26881;48.784;9.192;2022-08-30T06:10:35;98835.41;;;18.53;75.31
41140;BME280;26881;48.784;9.192;2022-08-30T06:15:57;98838.09;;;18.63;74.70
41140;BME280;26881;48.784;9.192;2022-08-30T06:21:24;98842.25;;;18.56;75.37
41140;BME280;26881;48.784;9.192;2022-08-30T06:26:47;98842.84;;;18.69;74.70
41140;BME280;26881;48.784;9.192;2022-08-30T06:32:08;98837.69;;;18.68;75.84
41140;BME280;26881;48.784;9.192;2022-08-30T06:37:30;98830.50;;;18.80;75.05
41140;BME280;26881;48.784;9.192;2022-08-30T06:42:53;98828.56;;;19.01;73.85
41140;BME280;26881;48.784;9.192;2022-08-30T06:48:15;98826.63;;;19.13;72.57
41140;BME280;26881;48.784;9.192;2022-08-30T06:53:37;98828.84;;;19.27;71.64
41140;BME280;26881;48.784;9.192;2022-08-30T06:59:01;98821.06;;;19.26;72.92
41140;BME280;26881;48.784;9.192;2022-08-30T07:04:23;98817.13;;;19.30;73.16
41140;BME280;26881;48.784;9.192;2022-08-30T07:09:45;98820.47;;;19.42;72.13
41140;BME280;26881;48.784;9.192;2022-08-30T07:15:08;98818.81;;;19.41;72.86
41140;BME280;26881;48.784;9.192;2022-08-30T07:20:29;98815.97;;;19.81;70.86
41140;BME280;26881;48.784;9.192;2022-08-30T07:26:08;98816.63;;;19.93;70.18
41140;BME280;26881;48.784;9.192;2022-08-30T07:31:30;98825.13;;;20.06;69.46
41140;BME280;26881;48.784;9.192;2022-08-30T07:36:53;98827.34;;;20.11;69.03
41140;BME280;26881;48.784;9.192;2022-08-30T07:42:15;98828.00;;;20.23;69.01
41140;BME280;26881;48.784;9.192;2022-08-30T07:47:37;98832.84;;;20.37;67.71
41140;BME280;26881;48.784;9.192;2022-08-30T07:52:59;98821.56;;;20.53;66.43
41140;BME280;26881;48.784;9.192;2022-08-30T07:58:21;98818.16;;;20.70;65.29
41140;BME280;26881;48.784;9.192;2022-08-30T08:03:43;98822.16;;;20.84;64.94
41140;BME280;26881;48.784;9.192;2022-08-30T08:09:06;98814.25;;;20.92;64.81
41140;BME280;26881;48.784;9.192;2022-08-30T08:14:28;98822.00;;;21.03;63.58
41140;BME280;26881;48.784;9.192;2022-08-30T08:19:50;98819.56;;;21.10;63.82
41140;BME280;26881;48.784;9.192;2022-08-30T08:25:11;98825.50;;;21.22;63.26
41140;BME280;26881;48.784;9.192;2022-08-30T08:30:36;98824.88;;;21.28;63.54
41140;BME280;26881;48.784;9.192;2022-08-30T08:35:58;98824.13;;;21.36;63.02
41140;BME280;26881;48.784;9.192;2022-08-30T08:41:40;98818.88;;;21.44;63.28
41140;BME280;26881;48.784;9.192;2022-08-30T08:47:15;98811.59;;;21.46;63.58
41140;BME280;26881;48.784;9.192;2022-08-30T08:52:48;98805.81;;;21.51;63.37
41140;BME280;26881;48.784;9.192;2022-08-30T08:59:07;98800.94;;;21.64;62.88
41140;BME280;26881;48.784;9.192;2022-08-30T09:04:33;98800.13;;;21.72;61.95
41140;BME280;26881;48.784;9.192;2022-08-30T09:09:57;98800.72;;;21.83;61.55
41140;BME280;26881;48.784;9.192;2022-08-30T09:15:26;98792.25;;;21.88;61.58
41140;BME280;26881;48.784;9.192;2022-08-30T09:20:49;98787.34;;;22.01;60.95
41140;BME280;26881;48.784;9.192;2022-08-30T09:26:12;98783.06;;;22.08;60.49
41140;BME280;26881;48.784;9.192;2022-08-30T09:31:49;98779.97;;;22.21;59.76
41140;BME280;26881;48.784;9.192;2022-08-30T09:37:55;98775.84;;;22.35;59.34
41140;BME280;26881;48.784;9.192;2022-08-30T09:43:27;98759.31;;;22.66;58.98
41140;BME280;26881;48.784;9.192;2022-08-30T09:48:50;98769.16;;;22.82;58.16
41140;BME280;26881;48.784;9.192;2022-08-30T09:54:24;98757.31;;;22.84;57.23
41140;BME280;26881;48.784;9.192;2022-08-30T10:10:55;98739.06;;;23.06;57.90
41140;BME280;26881;48.784;9.192;2022-08-30T10:22:16;98719.88;;;23.27;58.54
41140;BME280;26881;48.784;9.192;2022-08-30T10:27:48;98710.69;;;23.38;56.40
41140;BME280;26881;48.784;9.192;2022-08-30T10:33:23;98696.47;;;23.53;54.04
41140;BME280;26881;48.784;9.192;2022-08-30T10:38:52;98696.63;;;23.68;52.23
41140;BME280;26881;48.784;9.192;2022-08-30T10:44:24;98702.28;;;23.73;52.45
41140;BME280;26881;48.784;9.192;2022-08-30T10:49:49;98691.38;;;23.91;50.18
41140;BME280;26881;48.784;9.192;2022-08-30T10:55:20;98692.00;;;24.02;50.76
41140;BME280;26881;48.784;9.192;2022-08-30T11:06:30;98688.63;;;24.08;49.88
41140;BME280;26881;48.784;9.192;2022-08-30T11:18:11;98680.84;;;24.29;48.44
41140;BME280;26881;48.784;9.192;2022-08-30T11:23:34;98681.94;;;24.43;47.79
41140;BME280;26881;48.784;9.192;2022-08-30T11:45:41;98669.72;;;24.40;46.94
41140;BME280;26881;48.784;9.192;2022-08-30T11:51:09;98682.28;;;24.48;46.83
41140;BME280;26881;48.784;9.192;2022-08-30T11:57:00;98680.59;;;24.47;46.44
41140;BME280;26881;48.784;9.192;2022-08-30T12:02:45;98667.72;;;24.43;46.04
41140;BME280;26881;48.784;9.192;2022-08-30T12:19:15;98660.81;;;24.56;45.60
41140;BME280;26881;48.784;9.192;2022-08-30T12:24:41;98658.63;;;24.60;45.60
41140;BME280;26881;48.784;9.192;2022-08-30T12:30:07;98656.91;;;24.67;45.92
41140;BME280;26881;48.784;9.192;2022-08-30T12:35:31;98653.81;;;24.78;44.71
41140;BME280;26881;48.784;9.192;2022-08-30T12:40:59;98650.78;;;24.96;44.86
41140;BME280;26881;48.784;9.192;2022-08-30T12:46:22;98648.97;;;25.20;45.43
41140;BME280;26881;48.784;9.192;2022-08-30T12:51:44;98640.00;;;25.42;45.14
41140;BME280;26881;48.784;9.192;2022-08-30T12:57:06;98634.84;;;25.56;44.37
41140;BME280;26881;48.784;9.192;2022-08-30T13:02:50;98629.94;;;25.44;43.76
41140;BME280;26881;48.784;9.192;2022-08-30T13:14:02;98617.22;;;25.47;44.66
41140;BME280;26881;48.784;9.192;2022-08-30T13:19:41;98607.22;;;25.40;44.54
41140;BME280;26881;48.784;9.192;2022-08-30T13:25:05;98598.38;;;25.25;45.32
41140;BME280;26881;48.784;9.192;2022-08-30T13:30:29;98587.41;;;25.20;44.31
41140;BME280;26881;48.784;9.192;2022-08-30T13:35:51;98583.38;;;25.16;44.12
41140;BME280;26881;48.784;9.192;2022-08-30T13:41:16;98582.50;;;25.23;44.43
41140;BME280;26881;48.784;9.192;2022-08-30T13:46:40;98577.41;;;25.29;44.31
41140;BME280;26881;48.784;9.192;2022-08-30T13:52:06;98586.56;;;25.34;44.18
41140;BME280;26881;48.784;9.192;2022-08-30T13:57:44;98562.91;;;25.53;42.93
41140;BME280;26881;48.784;9.192;2022-08-30T14:03:21;98554.50;;;25.56;43.45
41140;BME280;26881;48.784;9.192;2022-08-30T14:08:43;98553.38;;;25.65;43.04
41140;BME280;26881;48.784;9.192;2022-08-30T14:14:08;98541.28;;;25.69;41.79
41140;BME280;26881;48.784;9.192;2022-08-30T14:19:50;98541.34;;;25.76;41.93
41140;BME280;26881;48.784;9.192;2022-08-30T14:25:14;98546.25;;;25.72;41.21
41140;BME280;26881;48.784;9.192;2022-08-30T14:30:37;98535.03;;;25.83;40.68
41140;BME280;26881;48.784;9.192;2022-08-30T14:36:00;98529.84;;;25.82;40.59
41140;BME280;26881;48.784;9.192;2022-08-30T14:41:21;98527.25;;;25.67;41.17
41140;BME280;26881;48.784;9.192;2022-08-30T14:46:43;98514.25;;;25.85;42.43
41140;BME280;26881;48.784;9.192;2022-08-30T14:52:06;98519.50;;;25.94;42.85
41140;BME280;26881;48.784;9.192;2022-08-30T14:57:28;98524.75;;;26.02;43.05
41140;BME280;26881;48.784;9.192;2022-08-30T15:02:50;98523.53;;;26.04;42.97
41140;BME280;26881;48.784;9.192;2022-08-30T15:08:12;98519.91;;;25.76;43.71
41140;BME280;26881;48.784;9.192;2022-08-30T15:13:33;98522.78;;;25.74;43.64
41140;BME280;26881;48.784;9.192;2022-08-30T15:18:56;98509.25;;;25.82;43.47
41140;BME280;26881;48.784;9.192;2022-08-30T15:24:21;98511.47;;;25.94;43.50
41140;BME280;26881;48.784;9.192;2022-08-30T15:29:50;98507.44;;;25.83;44.04
41140;BME280;26881;48.784;9.192;2022-08-30T15:35:11;98511.56;;;25.85;43.69
41140;BME280;26881;48.784;9.192;2022-08-30T15:40:33;98510.38;;;25.73;43.84
41140;BME280;26881;48.784;9.192;2022-08-30T15:45:55;98508.59;;;25.80;43.23
41140;BME280;26881;48.784;9.192;2022-08-30T15:51:17;98504.34;;;25.86;43.67
41140;BME280;26881;48.784;9.192;2022-08-30T15:56:39;98498.53;;;25.82;43.59
41140;BME280;26881;48.784;9.192;2022-08-30T16:02:02;98499.09;;;25.78;43.59
41140;BME280;26881;48.784;9.192;2022-08-30T16:07:26;98497.19;;;25.72;43.96
41140;BME280;26881;48.784;9.192;2022-08-30T16:12:48;98485.66;;;25.71;43.86
41140;BME280;26881;48.784;9.192;2022-08-30T16:18:10;98487.53;;;25.56;44.61
41140;BME280;26881;48.784;9.192;2022-08-30T16:23:35;98487.47;;;25.49;45.52
41140;BME280;26881;48.784;9.192;2022-08-30T16:28:58;98494.41;;;25.43;45.47
41140;BME280;26881;48.784;9.192;2022-08-30T16:34:20;98493.03;;;25.33;45.85
41140;BME280;26881;48.784;9.192;2022-08-30T16:39:42;98490.91;;;25.28;45.76
41140;BME280;26881;48.784;9.192;2022-08-30T16:45:07;98489.34;;;25.19;46.76
41140;BME280;26881;48.784;9.192;2022-08-30T16:50:35;98484.72;;;25.13;46.39
41140;BME280;26881;48.784;9.192;2022-08-30T16:55:58;98484.66;;;25.06;46.55
41140;BME280;26881;48.784;9.192;2022-08-30T17:01:21;98489.34;;;25.04;45.92
41140;BME280;26881;48.784;9.192;2022-08-30T17:06:45;98488.22;;;24.98;46.10
41140;BME280;26881;48.784;9.192;2022-08-30T17:12:07;98486.75;;;24.96;45.95
41140;BME280;26881;48.784;9.192;2022-08-30T17:17:29;98497.19;;;24.91;46.03
41140;BME280;26881;48.784;9.192;2022-08-30T17:22:51;98505.38;;;24.89;46.02
41140;BME280;26881;48.784;9.192;2022-08-30T17:28:13;98511.66;;;24.81;46.49
41140;BME280;26881;48.784;9.192;2022-08-30T17:33:35;98519.41;;;24.76;46.93
41140;BME280;26881;48.784;9.192;2022-08-30T17:39:04;98523.00;;;24.69;47.18
41140;BME280;26881;48.784;9.192;2022-08-30T17:44:33;98531.63;;;24.56;47.86
41140;BME280;26881;48.784;9.192;2022-08-30T17:49:56;98537.06;;;24.48;47.79
41140;BME280;26881;48.784;9.192;2022-08-30T17:55:19;98542.63;;;24.38;48.11
41140;BME280;26881;48.784;9.192;2022-08-30T18:00:41;98543.69;;;24.29;48.81
41140;BME280;26881;48.784;9.192;2022-08-30T18:06:04;98545.25;;;24.23;49.09
41140;BME280;26881;48.784;9.192;2022-08-30T18:11:26;98564.84;;;24.15;49.33
41140;BME280;26881;48.784;9.192;2022-08-30T18:16:48;98559.38;;;24.09;49.86
41140;BME280;26881;48.784;9.192;2022-08-30T18:22:15;98560.28;;;24.01;50.27
41140;BME280;26881;48.784;9.192;2022-08-30T18:27:38;98563.63;;;23.95;50.51
41140;BME280;26881;48.784;9.192;2022-08-30T18:33:00;98566.19;;;23.88;50.85
41140;BME280;26881;48.784;9.192;2022-08-30T18:38:23;98578.41;;;23.83;51.12
41140;BME280;26881;48.784;9.192;2022-08-30T18:43:45;98590.81;;;23.75;51.18
41140;BME280;26881;48.784;9.192;2022-08-30T18:49:07;98594.13;;;23.69;50.90
41140;BME280;26881;48.784;9.192;2022-08-30T18:54:29;98599.50;;;23.61;50.95
41140;BME280;26881;48.784;9.192;2022-08-30T18:59:50;98602.22;;;23.53;51.28
41140;BME280;26881;48.784;9.192;2022-08-30T19:05:14;98601.22;;;23.46;51.18
41140;BME280;26881;48.784;9.192;2022-08-30T19:10:37;98607.25;;;23.40;50.49
41140;BME280;26881;48.784;9.192;2022-08-30T19:16:01;98609.59;;;23.34;49.93
41140;BME280;26881;48.784;9.192;2022-08-30T19:21:23;98611.47;;;23.26;50.14
41140;BME280;26881;48.784;9.192;2022-08-30T19:26:44;98619.97;;;23.21;50.05
41140;BME280;26881;48.784;9.192;2022-08-30T19:32:07;98631.16;;;23.17;49.88
41140;BME280;26881;48.784;9.192;2022-08-30T19:37:30;98627.00;;;23.14;49.52
41140;BME280;26881;48.784;9.192;2022-08-30T19:42:54;98627.00;;;23.14;49.72
41140;BME280;26881;48.784;9.192;2022-08-30T19:48:17;98629.19;;;23.10;49.72
41140;BME280;26881;48.784;9.192;2022-08-30T19:53:43;98631.84;;;23.10;49.38
41140;BME280;26881;48.784;9.192;2022-08-30T19:59:04;98631.66;;;23.12;49.00
41140;BME280;26881;48.784;9.192;2022-08-30T20:04:27;98626.00;;;23.15;48.42
41140;BME280;26881;48.784;9.192;2022-08-30T20:09:50;98633.81;;;23.17;48.31
41140;BME280;26881;48.784;9.192;2022-08-30T20:15:14;98634.16;;;23.05;48.20
41140;BME280;26881;48.784;9.192;2022-08-30T20:20:37;98635.69;;;23.08;48.19
41140;BME280;26881;48.784;9.192;2022-08-30T20:26:00;98639.34;;;23.07;47.42
41140;BME280;26881;48.784;9.192;2022-08-30T20:31:24;98625.84;;;23.08;46.91
41140;BME280;26881;48.784;9.192;2022-08-30T20:36:46;98631.50;;;23.05;47.24
41140;BME280;26881;48.784;9.192;2022-08-30T20:42:08;98626.03;;;22.99;46.66
41140;BME280;26881;48.784;9.192;2022-08-30T20:47:30;98616.50;;;22.96;47.00
41140;BME280;26881;48.784;9.192;2022-08-30T20:52:53;98618.66;;;22.92;46.92
41140;BME280;26881;48.784;9.192;2022-08-30T20:58:15;98603.69;;;22.91;47.14
41140;BME280;26881;48.784;9.192;2022-08-30T21:03:37;98598.34;;;22.91;46.55
41140;BME280;26881;48.784;9.192;2022-08-30T21:09:00;98604.31;;;22.93;45.56
41140;BME280;26881;48.784;9.192;2022-08-30T21:14:22;98602.66;;;22.92;45.36
41140;BME280;26881;48.784;9.192;2022-08-30T21:19:44;98610.31;;;22.96;44.93
41140;BME280;26881;48.784;9.192;2022-08-30T21:25:07;98613.53;;;22.99;44.35
41140;BME280;26881;48.784;9.192;2022-08-30T21:30:29;98617.50;;;22.95;44.75
41140;BME280;26881;48.784;9.192;2022-08-30T21:35:51;98621.31;;;22.92;45.20
41140;BME280;26881;48.784;9.192;2022-08-30T21:41:32;98626.00;;;22.82;45.57
41140;BME280;26881;48.784;9.192;2022-08-30T21:46:54;98615.66;;;22.79;45.67
41140;BME280;26881;48.784;9.192;2022-08-30T21:52:16;98618.00;;;22.74;46.17
41140;BME280;26881;48.784;9.192;2022-08-30T21:57:37;98631.84;;;22.69;47.28
41140;BME280;26881;48.784;9.192;2022-08-30T22:02:59;98635.66;;;22.67;46.44
41140;BME280;26881;48.784;9.192;2022-08-30T22:08:21;98635.31;;;22.70;46.77
41140;BME280;26881;48.784;9.192;2022-08-30T22:13:45;98631.50;;;22.64;46.48
41140;BME280;26881;48.784;9.192;2022-08-30T22:19:08;98638.84;;;22.62;46.30
41140;BME280;26881;48.784;9.192;2022-08-30T22:24:30;98644.66;;;22.58;47.12
41140;BME280;26881;48.784;9.192;2022-08-30T22:29:53;98657.31;;;22.56;46.71
41140;BME280;26881;48.784;9.192;2022-08-30T22:35:15;98654.31;;;22.50;46.67
41140;BME280;26881;48.784;9.192;2022-08-30T22:40:43;98651.81;;;22.49;46.57
41140;BME280;26881;48.784;9.192;2022-08-30T22:46:05;98652.81;;;22.48;46.98
41140;BME280;26881;48.784;9.192;2022-08-30T22:51:32;98659.00;;;22.57;45.64
41140;BME280;26881;48.784;9.192;2022-08-30T22:56:54;98658.00;;;22.58;45.30
41140;BME280;26881;48.784;9.192;2022-08-30T23:02:16;98664.97;;;22.59;45.45
41140;BME280;26881;48.784;9.192;2022-08-30T23:07:38;98660.47;;;22.51;46.26
41140;BME280;26881;48.784;9.192;2022-08-30T23:13:00;98654.66;;;22.47;45.93
41140;BME280;26881;48.784;9.192;2022-08-30T23:18:21;98659.31;;;22.45;46.21
41140;BME280;26881;48.784;9.192;2022-08-30T23:23:43;98672.31;;;22.40;47.10
41140;BME280;26881;48.784;9.192;2022-08-30T23:29:24;98664.31;;;22.40;46.94
41140;BME280;26881;48.784;9.192;2022-08-30T23:35:07;98665.28;;;22.39;46.69
41140;BME280;26881;48.784;9.192;2022-08-30T23:40:50;98659.28;;;22.29;47.55
41140;BME280;26881;48.784;9.192;2022-08-30T23:46:30;98650.78;;;22.25;47.11
41140;BME280;26881;48.784;9.192;2022-08-30T23:52:10;98657.78;;;22.26;47.64
41140;BME280;26881;48.784;9.192;2022-08-30T23:57:51;98654.44;;;22.24;47.84
